Time;durP1;ratioP1;P1;durP2;ratioP2;P2;SDS_P1;SDS_P2;PMS_P1;PMS_P2;Temp;Humidity;BMP_temperature;BMP_pressure;BME280_temperature;BME280_humidity;BME280_pressure;Samples;Min_cycle;Max_cycle;Signal;HPM_P1;HPM_P2
2023/12/15 00:03:29;;;;;;;37.13;15.70;;;;;;;6.56;100.00;101775.84;8222109;28;20255;-57
2023/12/15 00:07:30;;;;;;;42.65;16.20;;;;;;;6.54;100.00;101783.16;8218731;28;20283;-58
2023/12/15 00:11:30;;;;;;;37.38;15.27;;;;;;;6.54;100.00;101785.81;8224125;28;20570;-57
2023/12/15 00:15:31;;;;;;;36.65;15.27;;;;;;;6.66;100.00;101779.78;8278432;28;20038;-57
2023/12/15 00:19:31;;;;;;;34.53;15.13;;;;;;;6.71;100.00;101785.75;8271318;28;20056;-57
2023/12/15 00:23:33;;;;;;;36.22;14.40;;;;;;;6.59;100.00;101778.38;8275089;28;20034;-57
2023/12/15 00:27:34;;;;;;;34.10;15.30;;;;;;;6.55;100.00;101774.13;8276674;28;20061;-57
2023/12/15 00:31:35;;;;;;;49.00;17.25;;;;;;;6.68;100.00;101772.47;8245782;28;20112;-57
2023/12/15 00:35:35;;;;;;;47.40;18.38;;;;;;;6.88;100.00;101783.00;8223090;28;20046;-56
2023/12/15 00:39:37;;;;;;;45.65;17.13;;;;;;;7.00;100.00;101779.63;8219312;28;20045;-56
2023/12/15 00:43:37;;;;;;;34.53;15.60;;;;;;;6.83;100.00;101779.69;8220893;28;20346;-57
2023/12/15 00:47:38;;;;;;;44.63;18.55;;;;;;;6.83;100.00;101793.13;8220597;28;20074;-58
2023/12/15 00:51:39;;;;;;;40.65;17.27;;;;;;;6.71;100.00;101804.56;8220764;28;20389;-57
2023/12/15 00:55:39;;;;;;;44.35;17.52;;;;;;;6.65;100.00;101806.72;8217931;28;20334;-58
2023/12/15 00:59:39;;;;;;;42.88;17.15;;;;;;;6.78;100.00;101811.34;8249950;28;20038;-57
2023/12/15 01:03:40;;;;;;;40.83;16.98;;;;;;;6.72;100.00;101811.69;8275473;28;20081;-56
2023/12/15 01:07:40;;;;;;;43.70;17.67;;;;;;;6.80;100.00;101820.19;8277684;28;20536;-56
2023/12/15 01:11:41;;;;;;;39.83;16.88;;;;;;;6.89;100.00;101825.03;8268814;28;20038;-55
2023/12/15 01:15:41;;;;;;;42.95;17.83;;;;;;;7.04;100.00;101834.94;8219480;28;20088;-55
2023/12/15 01:19:42;;;;;;;40.05;16.00;;;;;;;6.99;100.00;101842.41;8219232;28;20362;-56
2023/12/15 01:23:42;;;;;;;45.58;18.25;;;;;;;6.98;100.00;101851.41;8218829;28;20038;-56
2023/12/15 01:27:42;;;;;;;51.92;20.02;;;;;;;7.21;100.00;101852.81;8218804;28;20054;-58
2023/12/15 01:31:43;;;;;;;56.03;23.25;;;;;;;7.42;100.00;101870.44;8219508;28;20034;-55
2023/12/15 01:35:43;;;;;;;54.38;22.73;;;;;;;7.48;100.00;101868.25;8220394;28;20044;-56
2023/12/15 01:39:44;;;;;;;59.17;22.88;;;;;;;7.56;100.00;101875.88;8223978;28;20062;-59
2023/12/15 01:43:44;;;;;;;48.65;22.17;;;;;;;7.62;100.00;101859.38;8275248;28;20053;-59
2023/12/15 01:47:45;;;;;;;47.65;22.77;;;;;;;7.66;100.00;101869.88;8275800;28;20520;-58
2023/12/15 01:51:45;;;;;;;58.38;24.95;;;;;;;7.68;100.00;101865.28;8273972;28;20034;-58
2023/12/15 01:55:47;;;;;;;46.80;22.35;;;;;;;7.66;100.00;101867.19;8273749;28;20128;-57
2023/12/15 01:59:49;;;;;;;47.72;20.95;;;;;;;7.69;100.00;101875.06;8273696;28;20034;-59
2023/12/15 02:03:49;;;;;;;43.47;18.92;;;;;;;7.67;100.00;101879.72;8231798;28;20050;-57
2023/12/15 02:07:50;;;;;;;40.33;18.48;;;;;;;7.61;100.00;101880.06;8220339;28;20451;-55
2023/12/15 02:11:50;;;;;;;44.20;19.83;;;;;;;7.58;100.00;101885.63;8216636;28;20181;-56
2023/12/15 02:15:51;;;;;;;47.05;20.50;;;;;;;7.61;100.00;101885.44;8219367;28;20369;-56
2023/12/15 02:19:51;;;;;;;47.70;19.77;;;;;;;7.64;100.00;101885.25;8212385;28;20735;-56
2023/12/15 02:23:51;;;;;;;47.22;19.40;;;;;;;7.64;100.00;101898.72;8215505;28;20035;-56
2023/12/15 02:27:53;;;;;;;44.47;19.52;;;;;;;7.67;100.00;101906.63;8216504;28;20053;-57
2023/12/15 02:31:54;;;;;;;47.28;20.25;;;;;;;7.68;100.00;101907.47;8256136;28;20042;-57
2023/12/15 02:35:55;;;;;;;43.67;18.65;;;;;;;7.79;100.00;101907.72;8274185;28;20049;-55
2023/12/15 02:39:55;;;;;;;44.13;17.92;;;;;;;7.87;100.00;101909.00;8270869;28;20050;-55
2023/12/15 02:43:55;;;;;;;45.60;19.60;;;;;;;7.94;100.00;101906.84;8274218;28;20050;-56
2023/12/15 02:47:56;;;;;;;40.63;18.98;;;;;;;7.93;100.00;101908.66;8246666;28;20038;-57
2023/12/15 02:51:56;;;;;;;45.75;20.17;;;;;;;8.01;100.00;101906.38;8222168;28;20052;-56
2023/12/15 02:55:57;;;;;;;47.05;20.50;;;;;;;8.09;100.00;101909.47;8261129;28;20125;-56
2023/12/15 02:59:57;;;;;;;46.78;19.27;;;;;;;8.15;100.00;101902.00;8243923;28;20302;-58
2023/12/15 03:03:57;;;;;;;50.20;21.13;;;;;;;8.15;100.00;101907.38;8224377;28;20405;-57
2023/12/15 03:07:58;;;;;;;46.72;19.35;;;;;;;8.15;100.00;101899.31;8223153;28;20339;-57
2023/12/15 03:11:58;;;;;;;47.35;19.90;;;;;;;8.17;100.00;101910.88;8237858;28;20539;-57
2023/12/15 03:16:09;;;;;;;42.22;18.35;;;;;;;8.14;100.00;101913.75;8227085;28;20100;-55
2023/12/15 03:20:09;;;;;;;39.72;17.38;;;;;;;8.14;100.00;101902.97;8222964;28;20073;-57
2023/12/15 03:24:10;;;;;;;41.72;18.73;;;;;;;8.16;100.00;101901.03;8205715;28;20034;-57
2023/12/15 03:28:10;;;;;;;49.65;19.67;;;;;;;8.16;100.00;101911.81;8271779;28;20034;-56
2023/12/15 03:32:11;;;;;;;42.72;17.95;;;;;;;8.18;100.00;101920.66;8202551;28;20440;-56
2023/12/15 03:36:11;;;;;;;47.53;19.13;;;;;;;8.21;100.00;101928.56;8180302;28;20167;-57
2023/12/15 03:40:12;;;;;;;47.72;20.17;;;;;;;8.24;100.00;101939.19;8179092;28;20653;-56
2023/12/15 03:44:12;;;;;;;43.08;19.15;;;;;;;8.25;100.00;101940.94;8180963;28;20038;-57
2023/12/15 03:48:13;;;;;;;38.55;17.40;;;;;;;8.26;100.00;101937.28;8194775;28;20030;-56
2023/12/15 03:52:13;;;;;;;45.50;18.13;;;;;;;8.25;100.00;101957.09;8176530;28;20732;-57
2023/12/15 03:56:23;;;;;;;40.33;18.13;;;;;;;8.27;100.00;101960.56;8179120;28;20037;-57
2023/12/15 04:00:23;;;;;;;41.60;17.65;;;;;;;8.30;100.00;101971.16;8200691;28;20034;-57
2023/12/15 04:04:23;;;;;;;32.42;16.30;;;;;;;8.34;100.00;101967.31;8223105;28;20116;-58
2023/12/15 04:08:24;;;;;;;32.38;15.30;;;;;;;8.40;100.00;101977.75;8219361;28;20273;-57
2023/12/15 04:12:24;;;;;;;33.30;15.32;;;;;;;8.44;100.00;101979.28;8222187;28;20719;-56
2023/12/15 04:16:25;;;;;;;41.78;15.15;;;;;;;8.54;100.00;101991.28;8236641;28;20053;-57
2023/12/15 04:20:25;;;;;;;35.00;15.10;;;;;;;8.57;100.00;101999.19;8275914;28;20038;-57
2023/12/15 04:24:26;;;;;;;34.33;15.18;;;;;;;8.60;100.00;102001.69;8274080;28;20085;-56
2023/12/15 04:28:26;;;;;;;29.98;13.23;;;;;;;8.71;100.00;102005.47;8277946;28;20116;-59
2023/12/15 04:32:27;;;;;;;29.95;14.35;;;;;;;8.75;100.00;102006.16;8276399;28;20121;-57
2023/12/15 04:36:27;;;;;;;31.75;14.70;;;;;;;8.73;100.00;102011.66;8277715;28;20061;-56
2023/12/15 04:40:27;;;;;;;30.77;13.63;;;;;;;8.73;100.00;102010.78;8275563;28;20037;-56
2023/12/15 04:44:28;;;;;;;28.42;13.68;;;;;;;8.65;100.00;102021.13;8274778;28;20042;-56
2023/12/15 04:48:28;;;;;;;27.60;13.85;;;;;;;8.60;100.00;102017.88;8265797;28;20507;-55
2023/12/15 04:52:29;;;;;;;25.00;12.32;;;;;;;8.57;100.00;102037.75;8273290;28;20038;-57
2023/12/15 04:56:29;;;;;;;33.42;14.13;;;;;;;8.61;100.00;102030.38;8275241;28;20492;-57
2023/12/15 05:00:29;;;;;;;30.92;15.00;;;;;;;8.60;100.00;102034.03;8273108;28;20056;-58
2023/12/15 05:04:30;;;;;;;33.78;13.88;;;;;;;8.70;100.00;102037.91;8263434;28;20042;-56
2023/12/15 05:08:30;;;;;;;37.47;14.93;;;;;;;8.75;100.00;102035.81;8272511;28;20043;-55
2023/12/15 05:12:34;;;;;;;31.75;12.80;;;;;;;8.77;100.00;102037.47;8270508;28;20042;-56
2023/12/15 05:16:34;;;;;;;28.00;13.05;;;;;;;8.75;100.00;102035.81;8255088;28;20429;-57
2023/12/15 05:20:37;;;;;;;34.10;14.15;;;;;;;8.74;100.00;102031.38;8213352;28;20110;-57
2023/12/15 05:24:38;;;;;;;28.13;12.93;;;;;;;8.77;100.00;102025.78;8228996;28;20045;-57
2023/12/15 05:28:38;;;;;;;27.73;13.10;;;;;;;8.81;100.00;102043.56;8251734;28;20041;-57
2023/12/15 05:32:39;;;;;;;28.08;11.82;;;;;;;8.85;100.00;102039.69;8213863;28;20065;-57
2023/12/15 05:36:40;;;;;;;22.85;12.07;;;;;;;8.87;100.00;102048.53;8218518;28;20287;-58
2023/12/15 05:40:40;;;;;;;25.30;12.30;;;;;;;8.93;100.00;102043.66;8213067;28;20046;-58
2023/12/15 05:44:41;;;;;;;26.55;13.68;;;;;;;8.89;100.00;102049.34;8215980;28;20133;-57
2023/12/15 05:48:41;;;;;;;28.85;12.57;;;;;;;8.90;100.00;102048.34;8213353;28;20034;-56
2023/12/15 05:52:42;;;;;;;31.10;12.80;;;;;;;8.91;100.00;102059.06;8215838;28;20282;-57
2023/12/15 05:56:42;;;;;;;29.13;13.15;;;;;;;8.94;100.00;102063.41;8235477;28;20447;-57
2023/12/15 06:00:43;;;;;;;30.92;14.75;;;;;;;8.93;100.00;102069.75;8270417;28;20034;-57
2023/12/15 06:04:44;;;;;;;29.45;14.55;;;;;;;8.88;100.00;102082.66;8271109;28;20062;-57
2023/12/15 06:08:44;;;;;;;40.75;19.70;;;;;;;8.87;100.00;102091.69;8270599;28;20030;-57
2023/12/15 06:12:45;;;;;;;39.35;18.00;;;;;;;8.92;100.00;102095.00;8272836;28;20041;-57
2023/12/15 06:16:45;;;;;;;41.55;18.00;;;;;;;8.94;100.00;102098.47;8270348;28;20492;-57
2023/12/15 06:20:45;;;;;;;35.58;17.92;;;;;;;8.89;100.00;102095.19;8270655;28;20404;-57
2023/12/15 06:24:46;;;;;;;31.02;15.77;;;;;;;8.92;100.00;102100.38;8274240;28;20045;-57
2023/12/15 06:28:47;;;;;;;30.30;13.88;;;;;;;9.32;100.00;102099.72;8276937;28;20108;-57
2023/12/15 06:32:47;;;;;;;35.75;15.00;;;;;;;9.51;100.00;102084.13;8277406;28;20049;-56
2023/12/15 06:36:47;;;;;;;28.80;14.98;;;;;;;9.61;100.00;102090.69;8267957;28;20401;-57
2023/12/15 06:40:48;;;;;;;33.42;15.48;;;;;;;9.63;100.00;102094.16;8277998;28;20049;-57
2023/12/15 06:44:48;;;;;;;38.50;15.88;;;;;;;9.64;100.00;102106.72;8275759;28;20042;-57
2023/12/15 06:48:49;;;;;;;48.97;17.80;;;;;;;9.68;100.00;102102.84;8265279;28;20058;-56
2023/12/15 06:52:51;;;;;;;43.40;17.83;;;;;;;9.69;100.00;102116.25;8270046;28;20281;-58
2023/12/15 06:56:51;;;;;;;44.70;16.98;;;;;;;9.70;100.00;102122.53;8265042;28;20231;-57
2023/12/15 07:00:53;;;;;;;46.10;17.45;;;;;;;9.69;100.00;102131.56;8273702;28;20093;-57
2023/12/15 07:04:53;;;;;;;43.85;17.05;;;;;;;9.72;100.00;102121.47;8276289;28;20126;-57
2023/12/15 07:08:54;;;;;;;41.20;17.77;;;;;;;9.79;100.00;102141.72;8271569;28;20047;-57
2023/12/15 07:12:55;;;;;;;45.85;20.27;;;;;;;9.82;100.00;102146.91;8278873;28;20037;-57
2023/12/15 07:16:56;;;;;;;44.60;18.83;;;;;;;9.83;100.00;102150.50;8276262;28;20353;-57
2023/12/15 07:20:56;;;;;;;46.60;18.83;;;;;;;9.89;100.00;102160.94;8277921;28;20034;-58
2023/12/15 07:24:57;;;;;;;45.25;19.95;;;;;;;9.86;100.00;102161.97;8272058;28;20045;-58
2023/12/15 07:28:57;;;;;;;53.50;20.02;;;;;;;9.88;100.00;102175.38;8276415;28;20061;-56
2023/12/15 07:32:58;;;;;;;54.92;21.10;;;;;;;9.92;100.00;102182.34;8276473;28;20030;-58
2023/12/15 07:36:58;;;;;;;48.85;19.67;;;;;;;9.97;100.00;102182.91;8274314;28;20065;-58
2023/12/15 07:40:58;;;;;;;49.33;20.02;;;;;;;10.01;100.00;102187.19;8277193;28;20035;-57
2023/12/15 07:44:59;;;;;;;46.92;20.42;;;;;;;10.05;100.00;102188.72;8275603;28;20500;-57
2023/12/15 07:49:00;;;;;;;54.35;21.45;;;;;;;9.98;100.00;102190.06;8274573;28;20488;-57
2023/12/15 07:53:00;;;;;;;51.85;20.40;;;;;;;9.94;100.00;102196.59;8273895;28;20113;-56
2023/12/15 07:57:01;;;;;;;60.28;22.10;;;;;;;9.95;100.00;102203.78;8276219;28;20092;-58
2023/12/15 08:01:01;;;;;;;58.13;22.23;;;;;;;9.92;100.00;102203.97;8276015;28;20042;-56
2023/12/15 08:05:02;;;;;;;53.63;20.58;;;;;;;9.92;100.00;102209.38;8274212;28;20041;-58
2023/12/15 08:09:03;;;;;;;55.75;21.15;;;;;;;9.82;100.00;102187.44;8276540;28;20574;-57
2023/12/15 08:13:04;;;;;;;49.13;20.60;;;;;;;9.91;100.00;102204.91;8274878;28;20061;-56
2023/12/15 08:17:05;;;;;;;51.92;20.95;;;;;;;9.99;100.00;102216.13;8274353;28;20034;-58
2023/12/15 08:21:05;;;;;;;52.53;20.17;;;;;;;9.90;100.00;102217.56;8276318;28;20048;-58
2023/12/15 08:25:06;;;;;;;50.03;20.75;;;;;;;9.97;100.00;102234.25;8268938;28;20041;-57
2023/12/15 08:29:07;;;;;;;57.78;21.60;;;;;;;10.02;100.00;102238.41;8273797;28;20045;-57
2023/12/15 08:33:07;;;;;;;55.40;19.40;;;;;;;10.10;100.00;102251.50;8274028;28;20449;-58
2023/12/15 08:37:08;;;;;;;53.25;21.77;;;;;;;10.15;100.00;102265.56;8275552;28;20037;-56
2023/12/15 08:41:09;;;;;;;55.88;20.77;;;;;;;10.17;100.00;102273.56;8275389;28;20045;-58
2023/12/15 08:45:10;;;;;;;55.10;20.48;;;;;;;10.18;100.00;102276.19;8272962;28;20526;-57
2023/12/15 08:49:10;;;;;;;55.13;21.88;;;;;;;10.22;100.00;102291.28;8272732;28;20073;-56
2023/12/15 08:53:12;;;;;;;60.78;23.25;;;;;;;10.27;100.00;102289.13;8272074;28;20408;-58
2023/12/15 08:57:12;;;;;;;58.90;21.52;;;;;;;10.26;100.00;102290.13;8274812;28;20039;-58
2023/12/15 09:01:13;;;;;;;58.13;22.77;;;;;;;10.34;100.00;102309.41;8273536;28;20038;-58
2023/12/15 09:05:13;;;;;;;59.03;22.60;;;;;;;10.44;100.00;102332.22;8272404;28;20038;-57
2023/12/15 09:09:14;;;;;;;57.95;22.02;;;;;;;10.44;100.00;102343.03;8274435;28;20052;-58
2023/12/15 09:13:14;;;;;;;54.13;21.00;;;;;;;10.48;100.00;102349.13;8272239;28;20406;-57
2023/12/15 09:17:15;;;;;;;62.38;21.83;;;;;;;10.46;100.00;102354.63;8272736;28;20045;-57
2023/12/15 09:21:15;;;;;;;67.68;23.90;;;;;;;10.50;100.00;102356.19;8274271;28;20310;-56
2023/12/15 09:25:16;;;;;;;61.50;23.27;;;;;;;10.49;100.00;102351.72;8270917;28;20487;-58
2023/12/15 09:29:18;;;;;;;55.00;20.98;;;;;;;10.53;100.00;102353.28;8270538;28;20388;-56
2023/12/15 09:33:19;;;;;;;62.20;22.95;;;;;;;10.56;100.00;102372.03;8272316;28;20164;-57
2023/12/15 09:37:19;;;;;;;56.00;21.77;;;;;;;10.56;100.00;102385.56;8273294;28;20042;-57
2023/12/15 09:41:20;;;;;;;58.70;22.58;;;;;;;10.56;100.00;102380.16;8270926;28;20093;-57
2023/12/15 09:45:21;;;;;;;50.22;20.98;;;;;;;10.59;100.00;102385.38;8273441;28;20070;-57
2023/12/15 09:49:24;;;;;;;54.13;22.80;;;;;;;10.66;100.00;102386.72;8270666;28;20058;-58
2023/12/15 09:53:25;;;;;;;63.00;23.67;;;;;;;10.68;100.00;102379.38;8270743;28;20080;-57
2023/12/15 09:57:26;;;;;;;50.40;22.02;;;;;;;10.72;100.00;102396.28;8269652;28;20046;-58
2023/12/15 10:01:27;;;;;;;66.13;22.88;;;;;;;10.78;100.00;102398.59;8273617;28;20046;-56
2023/12/15 10:05:28;;;;;;;57.58;21.35;;;;;;;10.83;100.00;102402.75;8271958;28;20065;-56
2023/12/15 10:09:29;;;;;;;52.83;22.75;;;;;;;10.89;100.00;102394.25;8269657;28;20046;-58
2023/12/15 10:13:29;;;;;;;52.10;21.98;;;;;;;10.92;100.00;102399.47;8271893;28;20147;-56
2023/12/15 10:17:30;;;;;;;48.90;21.95;;;;;;;11.03;100.00;102401.50;8270091;28;20441;-56
2023/12/15 10:21:33;;;;;;;49.33;20.83;;;;;;;11.06;100.00;102407.59;8271032;28;20077;-56
2023/12/15 10:25:33;;;;;;;54.55;21.92;;;;;;;11.15;100.00;102425.97;8270355;28;20046;-57
2023/12/15 10:29:38;;;;;;;48.10;21.08;;;;;;;11.17;100.00;102432.16;8270136;28;20045;-55
2023/12/15 10:33:40;;;;;;;;;;;;;;;11.21;100.00;102428.28;8259406;28;20034;-56
2023/12/15 10:37:43;;;;;;;49.03;20.23;;;;;;;11.20;100.00;102433.78;8271961;28;20150;-56
2023/12/15 10:41:44;;;;;;;44.97;19.33;;;;;;;11.25;100.00;102439.75;8267087;28;20133;-56
2023/12/15 10:45:46;;;;;;;50.65;19.73;;;;;;;11.23;100.00;102437.16;8269616;28;20104;-56
2023/12/15 10:49:47;;;;;;;44.22;20.38;;;;;;;11.19;100.00;102434.75;8269253;28;20092;-57
2023/12/15 10:53:49;;;;;;;51.83;21.35;;;;;;;11.26;100.00;102439.66;8269023;28;20041;-56
2023/12/15 10:57:49;;;;;;;52.83;20.63;;;;;;;11.33;100.00;102443.75;8270067;28;20085;-56
2023/12/15 11:01:50;;;;;;;49.55;19.60;;;;;;;11.37;100.00;102445.28;8271846;28;20128;-56
2023/12/15 11:05:51;;;;;;;46.67;20.38;;;;;;;11.39;100.00;102454.19;8268448;28;20100;-56
2023/12/15 11:09:51;;;;;;;45.20;20.42;;;;;;;11.48;100.00;102459.00;8275016;28;20042;-56
2023/12/15 11:13:59;;;;;;;52.72;21.60;;;;;;;11.51;100.00;102466.94;8275911;28;20049;-56
2023/12/15 11:17:59;;;;;;;54.67;21.98;;;;;;;11.54;100.00;102469.44;8276354;28;20045;-58
2023/12/15 11:22:00;;;;;;;48.17;20.48;;;;;;;11.53;99.73;102461.41;8273807;28;20030;-59
2023/12/15 11:26:00;;;;;;;49.78;20.67;;;;;;;11.61;100.00;102470.78;8276968;28;20049;-57
2023/12/15 11:30:39;;;;;;;57.38;21.08;;;;;;;11.62;99.68;102482.53;8276353;28;20038;-57
2023/12/15 11:34:40;;;;;;;51.08;20.27;;;;;;;11.65;99.32;102510.28;8276051;28;20556;-58
2023/12/15 11:38:41;;;;;;;58.03;21.73;;;;;;;11.61;99.34;102503.28;8273769;28;20451;-58
2023/12/15 11:42:42;;;;;;;57.28;22.50;;;;;;;11.63;99.51;102506.81;8274919;28;20034;-59
2023/12/15 11:46:43;;;;;;;53.33;21.48;;;;;;;11.64;99.31;102496.81;8275296;28;20038;-55
2023/12/15 11:50:45;;;;;;;49.30;19.27;;;;;;;11.62;98.59;102505.06;8273869;28;20527;-56
2023/12/15 11:54:46;;;;;;;53.00;19.35;;;;;;;11.67;98.72;102515.59;8273685;28;20054;-58
2023/12/15 11:58:46;;;;;;;46.30;17.75;;;;;;;11.70;98.36;102535.25;8274250;28;20046;-59
2023/12/15 12:02:48;;;;;;;50.00;17.45;;;;;;;11.69;98.47;102527.22;8276270;28;20125;-58
2023/12/15 12:06:48;;;;;;;47.03;17.98;;;;;;;11.63;97.73;102517.66;8271996;28;20129;-59
2023/12/15 12:10:54;;;;;;;53.53;18.35;;;;;;;11.72;97.82;102527.03;8274891;28;20042;-59
2023/12/15 12:14:54;;;;;;;53.90;19.83;;;;;;;11.69;97.61;102533.47;8274515;28;20038;-59
2023/12/15 12:18:55;;;;;;;53.10;18.67;;;;;;;11.72;97.84;102537.84;8272352;28;20035;-59
2023/12/15 12:23:00;;;;;;;55.10;21.20;;;;;;;11.74;97.44;102531.38;8271649;28;20049;-59
2023/12/15 12:27:08;;;;;;;55.17;18.95;;;;;;;11.79;96.79;102523.81;8271966;28;20038;-58
2023/12/15 12:31:09;;;;;;;50.55;19.13;;;;;;;11.82;97.25;102520.91;8270099;28;20448;-59
2023/12/15 12:35:10;;;;;;;55.25;24.35;;;;;;;11.87;96.84;102518.75;8273568;28;20042;-58
2023/12/15 12:39:11;;;;;;;50.83;20.98;;;;;;;11.92;97.09;102506.75;8274570;28;20069;-58
2023/12/15 12:43:11;;;;;;;53.42;20.70;;;;;;;11.92;96.89;102506.75;8272484;28;20038;-58
2023/12/15 12:47:11;;;;;;;60.67;22.45;;;;;;;11.88;96.26;102493.41;8270575;28;20050;-59
2023/12/15 12:51:12;;;;;;;53.42;19.17;;;;;;;11.93;95.40;102497.66;8269712;28;20026;-58
2023/12/15 12:55:13;;;;;;;54.92;19.80;;;;;;;11.98;95.36;102500.94;8269816;28;20091;-56
2023/12/15 12:59:13;;;;;;;57.63;22.20;;;;;;;12.00;94.83;102505.28;8269089;28;20043;-56
2023/12/15 13:03:14;;;;;;;53.38;20.42;;;;;;;12.07;94.42;102516.59;8269846;28;20044;-55
2023/12/15 13:07:14;;;;;;;62.65;22.17;;;;;;;12.06;93.75;102510.28;8269572;28;20066;-56
2023/12/15 13:11:15;;;;;;;59.75;21.83;;;;;;;12.09;93.78;102510.09;8269954;28;20069;-57
2023/12/15 13:15:15;;;;;;;53.38;20.60;;;;;;;12.11;93.36;102512.69;8272218;28;20132;-57
2023/12/15 13:19:16;;;;;;;51.92;21.48;;;;;;;12.10;93.13;102494.69;8269737;28;20543;-57
2023/12/15 13:23:16;;;;;;;52.15;18.23;;;;;;;12.11;92.80;102477.44;8266543;28;20049;-57
2023/12/15 13:27:17;;;;;;;50.78;18.38;;;;;;;12.13;92.11;102508.91;8269126;28;20034;-57
2023/12/15 13:31:17;;;;;;;41.00;17.10;;;;;;;12.12;92.42;102511.72;8264406;28;20061;-58
2023/12/15 13:35:18;;;;;;;44.08;16.20;;;;;;;12.02;91.17;102519.59;8266570;28;20565;-57
2023/12/15 13:39:18;;;;;;;51.60;16.50;;;;;;;12.00;91.78;102536.94;8270253;28;20389;-57
2023/12/15 13:43:19;;;;;;;51.38;15.90;;;;;;;11.99;91.23;102548.75;8268376;28;20109;-58
2023/12/15 13:47:21;;;;;;;39.55;14.50;;;;;;;11.96;90.61;102529.97;8270317;28;20046;-56
2023/12/15 13:51:21;;;;;;;38.83;15.02;;;;;;;11.93;90.21;102524.75;8268754;28;20484;-56
2023/12/15 13:55:22;;;;;;;40.38;14.88;;;;;;;11.96;90.44;102519.13;8268796;28;20427;-57
2023/12/15 13:59:23;;;;;;;39.30;13.77;;;;;;;11.92;90.19;102528.44;8269425;28;20407;-56
2023/12/15 14:03:24;;;;;;;36.45;13.68;;;;;;;11.92;90.81;102528.44;8269304;28;20081;-55
2023/12/15 14:07:25;;;;;;;41.15;14.25;;;;;;;11.90;90.32;102532.09;8269222;28;20085;-56
2023/12/15 14:11:25;;;;;;;33.10;14.68;;;;;;;11.86;90.58;102540.53;8270284;28;22607;-56
2023/12/15 14:15:26;;;;;;;40.22;14.82;;;;;;;11.84;90.06;102527.06;8271571;28;20068;-58
2023/12/15 14:19:27;;;;;;;41.72;13.07;;;;;;;11.82;89.01;102512.78;8268277;28;20038;-56
2023/12/15 14:23:27;;;;;;;31.05;11.43;;;;;;;11.84;88.76;102515.38;8264145;28;20038;-57
2023/12/15 14:27:28;;;;;;;31.30;12.02;;;;;;;11.84;88.01;102532.50;8270232;28;20096;-57
2023/12/15 14:31:29;;;;;;;32.70;11.57;;;;;;;11.75;88.34;102543.94;8268783;28;20318;-55
2023/12/15 14:35:29;;;;;;;38.28;13.25;;;;;;;11.83;88.22;102533.47;8268718;28;20516;-58
2023/12/15 14:39:29;;;;;;;40.08;12.77;;;;;;;11.79;88.45;102545.50;8257744;28;20287;-55
2023/12/15 14:43:30;;;;;;;35.42;12.98;;;;;;;11.79;88.77;102542.78;8271460;28;20066;-56
2023/12/15 14:47:31;;;;;;;32.78;11.60;;;;;;;11.72;88.27;102552.25;8274274;28;20145;-56
2023/12/15 14:51:31;;;;;;;32.88;11.63;;;;;;;11.64;88.75;102561.84;8274128;28;20120;-56
2023/12/15 14:55:32;;;;;;;42.22;11.32;;;;;;;11.65;88.15;102564.47;8273987;28;20068;-56
2023/12/15 14:59:32;;;;;;;30.48;11.32;;;;;;;11.62;88.43;102570.06;8273645;28;20050;-57
2023/12/15 15:03:33;;;;;;;31.40;9.63;;;;;;;11.58;89.09;102584.75;8266315;28;20053;-56
2023/12/15 15:07:35;;;;;;;26.95;9.93;;;;;;;11.52;89.17;102595.97;8267151;28;20046;-55
2023/12/15 15:11:36;;;;;;;37.75;10.38;;;;;;;11.50;89.11;102611.44;8258954;28;20035;-55
2023/12/15 15:15:36;;;;;;;31.33;11.30;;;;;;;11.49;89.22;102617.84;8265881;28;20539;-56
2023/12/15 15:19:37;;;;;;;35.15;11.15;;;;;;;11.45;89.32;102629.84;8263227;28;20040;-55
2023/12/15 15:23:37;;;;;;;32.90;10.68;;;;;;;11.45;88.70;102631.69;8269448;28;20471;-55
2023/12/15 15:27:38;;;;;;;36.92;11.07;;;;;;;11.45;88.72;102640.69;8271837;28;20898;-54
2023/12/15 15:31:39;;;;;;;29.33;10.73;;;;;;;11.42;88.94;102638.16;8268179;28;20496;-54
2023/12/15 15:35:40;;;;;;;37.40;10.73;;;;;;;11.39;89.10;102657.31;8283332;28;20048;-57
2023/12/15 15:39:41;;;;;;;33.92;9.60;;;;;;;11.32;88.77;102653.22;8273618;28;20547;-55
2023/12/15 15:43:41;;;;;;;29.70;10.10;;;;;;;11.39;89.02;102681.69;8273919;28;20396;-55
2023/12/15 15:47:41;;;;;;;30.65;11.25;;;;;;;11.33;89.11;102676.66;8272036;28;20069;-54
2023/12/15 15:51:42;;;;;;;33.22;10.27;;;;;;;11.29;88.95;102666.94;8269074;28;20046;-55
2023/12/15 15:55:42;;;;;;;35.33;10.82;;;;;;;11.31;88.74;102662.31;8270084;28;20550;-54
2023/12/15 15:59:43;;;;;;;30.27;11.27;;;;;;;11.23;89.11;102675.44;8271238;28;20041;-56
2023/12/15 16:03:44;;;;;;;32.97;10.57;;;;;;;11.23;89.02;102677.28;8271066;28;20097;-55
2023/12/15 16:07:44;;;;;;;43.92;10.88;;;;;;;11.22;89.11;102673.69;8272707;28;20133;-56
2023/12/15 16:11:45;;;;;;;32.63;10.68;;;;;;;11.19;89.07;102673.88;8269901;28;20038;-56
2023/12/15 16:15:45;;;;;;;32.95;10.15;;;;;;;11.14;89.41;102676.00;8273040;28;20103;-57
2023/12/15 16:19:46;;;;;;;40.50;10.98;;;;;;;11.07;89.99;102676.47;8271942;28;20141;-57
2023/12/15 16:23:46;;;;;;;33.88;11.10;;;;;;;11.02;89.95;102671.31;8268731;28;20038;-56
2023/12/15 16:27:47;;;;;;;38.42;11.15;;;;;;;10.94;90.58;102673.59;8271352;28;20046;-55
2023/12/15 16:31:48;;;;;;;35.22;10.48;;;;;;;10.86;91.08;102678.56;8271509;28;20415;-55
2023/12/15 16:35:49;;;;;;;30.92;9.93;;;;;;;10.88;90.53;102684.78;8269579;28;20141;-57
2023/12/15 16:39:51;;;;;;;46.10;12.27;;;;;;;10.83;90.90;102696.84;8263573;28;20054;-57
2023/12/15 16:43:52;;;;;;;29.92;9.80;;;;;;;10.81;90.79;102715.00;8269560;28;20543;-57
2023/12/15 16:47:52;;;;;;;29.33;10.80;;;;;;;10.81;90.38;102705.06;8269745;28;20450;-57
2023/12/15 16:51:54;;;;;;;32.25;10.02;;;;;;;10.82;90.51;102703.19;8269149;28;20042;-58
2023/12/15 16:55:54;;;;;;;41.92;12.40;;;;;;;10.81;90.15;102720.41;8270758;28;20112;-56
2023/12/15 16:59:55;;;;;;;40.80;10.93;;;;;;;10.81;90.23;102709.59;8269478;28;20049;-58
2023/12/15 17:03:55;;;;;;;31.13;9.52;;;;;;;10.82;90.23;102700.50;8265322;28;20061;-56
2023/12/15 17:07:56;;;;;;;31.17;11.10;;;;;;;10.71;91.21;102684.03;8265886;28;20050;-57
2023/12/15 17:11:58;;;;;;;38.45;10.68;;;;;;;10.64;91.46;102697.03;8268063;28;20551;-56
2023/12/15 17:15:59;;;;;;;38.15;11.60;;;;;;;10.63;91.58;102687.16;8268814;28;20045;-57
2023/12/15 17:19:59;;;;;;;31.73;11.15;;;;;;;10.58;92.35;102691.97;8271612;28;20069;-57
2023/12/15 17:24:00;;;;;;;37.50;11.00;;;;;;;10.53;92.66;102688.66;8265419;28;20052;-56
2023/12/15 17:28:00;;;;;;;36.10;10.52;;;;;;;10.56;92.68;102696.59;8268518;28;20116;-58
2023/12/15 17:32:01;;;;;;;35.35;11.10;;;;;;;10.61;91.65;102705.31;8268648;28;20034;-56
2023/12/15 17:36:01;;;;;;;31.35;10.32;;;;;;;10.68;90.56;102725.66;8262702;28;20042;-57
2023/12/15 17:40:02;;;;;;;30.98;10.57;;;;;;;10.67;90.27;102733.88;8265274;28;20042;-57
2023/12/15 17:44:03;;;;;;;32.90;10.60;;;;;;;10.67;90.42;102756.38;8268038;28;20446;-56
2023/12/15 17:48:03;;;;;;;30.70;10.00;;;;;;;10.68;89.56;102763.53;8268581;28;20038;-56
2023/12/15 17:52:04;;;;;;;31.75;10.02;;;;;;;10.71;89.24;102759.78;8261904;28;20108;-56
2023/12/15 17:56:05;;;;;;;29.77;10.18;;;;;;;10.74;88.85;102767.72;8266474;28;20050;-57
2023/12/15 18:00:06;;;;;;;30.25;8.95;;;;;;;10.69;88.40;102776.09;8269623;28;20396;-56
2023/12/15 18:04:06;;;;;;;34.13;9.93;;;;;;;10.63;88.93;102737.69;8265058;28;20062;-57
2023/12/15 18:08:07;;;;;;;25.70;8.88;;;;;;;10.62;88.71;102753.06;8260764;28;20041;-57
2023/12/15 18:12:08;;;;;;;28.73;9.52;;;;;;;10.60;88.81;102764.91;8267671;28;20129;-57
2023/12/15 18:16:08;;;;;;;26.42;9.02;;;;;;;10.59;88.68;102780.28;8257076;28;20054;-56